« Back
NWS Peachtree City, Ga » Text Product » CSG Terminal Aerodrome Forecast


Printer-friendly Version
Current Version              Previous Versions:   1  2  3  4  5  6  7  8  9  

Terminal Aerodrome Forecast

422
FTUS42 KFFC 302100 AAA
TAFCSG
TAF AMD
KCSG 302141Z 3022/3118 32006KT P6SM SKC
     FM310100 33003KT P6SM SKC
     FM311400 32005KT P6SM FEW120=

USA.gov is the U.S. government's official web portal to all federal, state and local government web resources and services.